Monday, October 16, 2017, 10:53 PM CDT
Back to Local

KMDW, Chicago Midway Airport

Location: Chicago, IL, United States Lat: 41.783
Local Time: 10:53 PM CDT ( 3:53 GMT) Lon: -87.75
Time Zone: US/Central Elev: 620 ft

Show me the last for .
Show Decoded

2017-10-16 21:53 METAR KMDW 170253Z 19006KT 10SM CLR 12/04 A3021 RMK AO2 SLP233 T01170044 58002 =
2017-10-16 20:53 METAR KMDW 170153Z 20006KT 10SM CLR 13/03 A3022 RMK AO2 SLP235 T01280033 =
2017-10-16 19:53 METAR KMDW 170053Z 22004KT 10SM CLR 14/03 A3022 RMK AO2 SLP234 T01390028 =
2017-10-16 18:53 METAR KMDW 162353Z 23006KT 10SM CLR 14/02 A3022 RMK AO2 SLP237 T01440022 10172
                 20144 56005 =
2017-10-16 17:53 METAR KMDW 162253Z 26006KT 10SM FEW250 16/02 A3022 RMK AO2 SLP236 T01560017 =
2017-10-16 16:53 METAR KMDW 162153Z 26008KT 10SM FEW060 FEW250 17/01 A3022 RMK AO2 SLP234
                 T01670011 =
2017-10-16 15:53 METAR KMDW 162053Z 25013KT 10SM FEW060 FEW250 17/03 A3024 RMK AO2 SLP239
                 T01720033 56018 =
2017-10-16 14:53 METAR KMDW 161953Z 25009KT 10SM FEW060 FEW250 17/03 A3025 RMK AO2 SLP243
                 T01670033 =
2017-10-16 13:53 METAR KMDW 161853Z 25010KT 10SM FEW048 16/04 A3026 RMK AO2 SLP248 T01610039 =
2017-10-16 12:53 METAR KMDW 161753Z 23010KT 10SM FEW045 15/04 A3029 RMK AO2 SLP257 T01500044
                 10156 20061 58009 =
2017-10-16 11:53 METAR KMDW 161653Z 24011KT 10SM CLR 14/04 A3030 RMK AO2 SLP261 T01440039 =
2017-10-16 10:53 METAR KMDW 161553Z 25008KT 10SM CLR 13/06 A3032 RMK AO2 SLP269 T01280056 =
2017-10-16 09:53 METAR KMDW 161453Z 25008KT 10SM CLR 11/06 A3032 RMK AO2 SLP268 T01110056 50005 =
2017-10-16 08:53 METAR KMDW 161353Z 25007KT 10SM FEW090 09/05 A3032 RMK AO2 SLP270 T00890050 $ =
2017-10-16 07:53 METAR KMDW 161253Z 26005KT 10SM FEW040 FEW090 08/05 A3031 RMK AO2 SLP268
                 T00780050 $ =
2017-10-16 06:53 METAR KMDW 161153Z 24005KT 10SM FEW090 07/05 A3030 RMK AO2 SLP264 T00670050
                 10089 20061 51012 $ =
2017-10-16 05:53 METAR KMDW 161053Z 28004KT 10SM FEW090 07/04 A3029 RMK AO2 SLP261 T00670044 $ =
2017-10-16 04:53 METAR KMDW 160953Z 27005KT 10SM SCT090 07/05 A3028 RMK AO2 SLP256 T00720050 $ =
2017-10-16 03:53 METAR KMDW 160853Z 27004KT 10SM FEW090 07/05 A3026 RMK AO2 SLP251 T00670050
                 51001 $ =
2017-10-16 02:53 METAR KMDW 160753Z 27003KT 10SM FEW055 07/05 A3026 RMK AO2 SLP251 T00720050 $ =
2017-10-16 01:53 METAR KMDW 160653Z 27003KT 10SM FEW055 08/05 A3026 RMK AO2 SLP251 T00780050 $ =
2017-10-16 00:53 METAR KMDW 160553Z 30006KT 10SM FEW055 09/05 A3026 RMK AO2 SLP250 T00890050
                 10122 20089 402000089 51009 $ =
2017-10-15 23:53 METAR KMDW 160453Z 30005KT 10SM FEW055 09/06 A3025 RMK AO2 SLP246 T00940056 $ =

Support USWX by starting your Amazon purchase here.